Flight Track Log - Related Links

Times and Time Zones

All times are in EDT time to prevent confusion due to time zone crossing. See the SWA470 flight status page for this flight to view local times or setup timezone preferences in your user account.

Time Position Orientation Groundspeed Altitude Reporting Facility
EDT Latitude Longitude Course Direction KTS MPH feet Rate Location/Type
Fri 02:02:11 PM 41.7333 -87.8833 236° Southwest 223 257 4,900  Level Chicago TRACON
Fri 02:02:34 PM 41.7367 -87.9056 281° West 201 231 5,800 2,894 Climbing Chicago Center
Fri 02:03:36 PM 41.7333 -87.9997 267° West 251 289 9,000 2,952 Climbing Chicago Center
Fri 02:04:38 PM 41.7742 -88.1089 297° West 284 327 11,900 2,177 Climbing Chicago Center
Fri 02:05:40 PM 41.7783 -88.2108 273° West 277 319 13,500 2,468 Climbing Chicago Center
Fri 02:06:00 PM 41.7356 -88.4709 264° West  Level FlightAware Approximate
Fri 02:06:42 PM 41.7753 -88.3092 268° West 269 310 17,000  Level Chicago Center
Fri 02:07:44 PM 41.7947 -88.4225 283° West 331 381 18,300 2,304 Climbing Chicago Center
Fri 02:08:47 PM 41.8406 -88.5681 293° West 358 412 21,800 2,880 Climbing Chicago Center
Fri 02:09:49 PM 41.8378 -88.7050 268° West 371 427 24,300 2,419 Climbing Chicago Center
Fri 02:10:51 PM 41.8306 -88.8400 266° West 367 422 26,800 2,806 Climbing Chicago Center
Fri 02:11:53 PM 41.8264 -88.9764 268° West 369 425 30,100 2,516 Climbing Chicago Center
Fri 02:12:55 PM 41.8225 -89.1014 268° West 349 402 32,000 919 Climbing Chicago Center
Fri 02:13:57 PM 41.8181 -89.2567 268° West 349 402 32,000  Level Chicago Center
Fri 02:14:59 PM 41.8142 -89.3878 268° West 353 406 32,000  Level Chicago Center
Fri 02:16:01 PM 41.8094 -89.5181 267° West 351 404 32,000  Level Chicago Center
Fri 02:17:03 PM 41.8033 -89.6486 266° West 353 406 32,000  Level Chicago Center
Fri 02:18:05 PM 41.7997 -89.7817 268° West 353 406 32,000  Level Chicago Center
Fri 02:19:07 PM 41.7936 -89.9178 267° West 363 418 32,000  Level Chicago Center
Fri 02:20:10 PM 41.7881 -90.0758 267° West 356 410 32,000  Level Chicago Center
Fri 02:21:12 PM 41.7825 -90.2089 267° West 358 412 32,000  Level Chicago Center
Fri 02:22:14 PM 41.7753 -90.3472 266° West 371 427 32,000  Level Chicago Center
Fri 02:23:16 PM 41.7692 -90.4792 266° West 361 415 32,000  Level Chicago Center
Fri 02:24:18 PM 41.7625 -90.6117 266° West 358 412 32,000  Level Chicago Center
Fri 02:25:20 PM 41.7567 -90.7481 267° West 358 412 32,000  Level Chicago Center
Fri 02:26:22 PM 41.7508 -90.8800 267° West 358 412 32,000  Level Chicago Center
Fri 02:27:24 PM 41.7422 -91.0386 266° West 358 412 32,000 -194 Level Chicago Center
Fri 02:28:26 PM 41.7358 -91.1706 266° West 358 412 31,600 -726 Descending Chicago Center
Fri 02:29:28 PM 41.7292 -91.2947 266° West 341 392 30,500 -1,016 Descending Chicago Center
Fri 02:30:30 PM 41.7228 -91.4167 266° West 332 382 29,500 -960 Descending Chicago Center
Fri 02:31:33 PM 41.7161 -91.5386 266° West 331 381 28,500 -1,056 Descending Chicago Center
Fri 02:32:35 PM 41.7078 -91.6811 266° West 324 373 27,300 -1,065 Descending Chicago Center
Fri 02:33:37 PM 41.7017 -91.7994 266° West 322 371 26,300 -1,065 Descending Chicago Center
Fri 02:34:39 PM 41.6942 -91.9197 265° West 324 373 25,100 -1,355 Descending Chicago Center
Fri 02:35:41 PM 41.6872 -92.0378 266° West 323 372 23,500 -1,742 Descending Chicago Center
Fri 02:36:43 PM 41.6808 -92.1533 266° West 315 362 21,500 -2,081 Descending Chicago Center
Fri 02:37:45 PM 41.6714 -92.3003 265° West 330 380 19,200 -1,935 Descending Chicago Center
Fri 02:38:47 PM 41.6647 -92.4219 266° West 330 380 17,500 -1,742 Descending Chicago Center
Fri 02:39:49 PM 41.6569 -92.5408 265° West 325 374 15,600 -1,934 Descending Chicago Center
Fri 02:40:48 PM 41.6494 -92.6606 265° West 318 366 13,600 -1,785 Descending Minneapolis Center
Fri 02:41:50 PM 41.6433 -92.7850 266° West 312 359 12,000 -1,500 Descending Minneapolis Center
Fri 02:42:52 PM 41.6342 -92.8956 264° West 302 348 10,500 -1,241 Descending Minneapolis Center
Fri 02:43:46 PM 41.6328 -92.9811 269° West 278 320 9,600 -1,148 Descending Minneapolis Center
Fri 02:44:47 PM 41.6258 -93.0767 264° West 265 305 8,300 -1,279 Descending Minneapolis Center
Fri 02:45:48 PM 41.6208 -93.1719 266° West 258 297 7,000 -1,289 Descending Minneapolis Center
Fri 02:46:48 PM 41.6139 -93.2700 265° West 253 291 5,700 -893 Descending Minneapolis Center
Fri 02:47:49 PM 41.6081 -93.3542 265° West 232 267 5,200 -639 Descending Minneapolis Center
Fri 02:48:50 PM 41.6017 -93.4300 264° West 202 232 4,400 -893 Descending Minneapolis Center
Fri 02:49:50 PM 41.5967 -93.4917 264° West 174 200 3,400 -868 Descending Minneapolis Center
Fri 02:50:06 PM 41.5906 -93.5142 250° West 167 192 3,300 -689 Descending Minneapolis Center
Fri 02:50:51 PM 41.5936 -93.5478 277° West 154 177 2,700 -871 Descending Minneapolis Center
Fri 02:51:08 PM 41.5819 -93.5703 235° Southwest 144 166 2,400 -787 Descending Minneapolis Center
Fri 02:51:52 PM 41.5728 -93.5886 236° Southwest 129 148 1,900 -677 Descending Minneapolis Center
Fri 02:52:10 PM 41.5608 -93.6083 231° Southwest 128 147 1,700 -590 Descending Minneapolis Center
Fri 02:52:53 PM 41.5536 -93.6236 238° Southwest 123 142 1,300 -571 Descending Minneapolis Center
Fri 02:53:13 PM 41.5408 -93.6453 232° Southwest 123 142 1,100 -293 Descending Minneapolis Center
Fri 02:54:15 PM 41.5214 -93.6786 232° Southwest 122 140 900 -194 Descending Minneapolis Center

Login

Don't have an account? Register now (free) for customized features, flight alerts, and more!